sensor_id;sensor_type;location;lat;lon;timestamp;temperature;humidity
71175;DHT22;58876;51.994;4.472;2023-08-21T00:01:01;20.20;69.09
71175;DHT22;58876;51.994;4.472;2023-08-21T00:03:27;20.16;69.37
71175;DHT22;58876;51.994;4.472;2023-08-21T00:05:53;20.18;70.33
71175;DHT22;58876;51.994;4.472;2023-08-21T00:08:19;20.14;69.80
71175;DHT22;58876;51.994;4.472;2023-08-21T00:10:44;20.11;70.09
71175;DHT22;58876;51.994;4.472;2023-08-21T00:13:10;20.13;70.60
71175;DHT22;58876;51.994;4.472;2023-08-21T00:15:38;20.13;70.21
71175;DHT22;58876;51.994;4.472;2023-08-21T00:18:04;20.16;70.04
71175;DHT22;58876;51.994;4.472;2023-08-21T00:20:30;20.27;71.31
71175;DHT22;58876;51.994;4.472;2023-08-21T00:22:56;20.29;70.92
71175;DHT22;58876;51.994;4.472;2023-08-21T00:25:21;20.31;70.19
71175;DHT22;58876;51.994;4.472;2023-08-21T00:27:47;20.27;70.76
71175;DHT22;58876;51.994;4.472;2023-08-21T00:30:12;20.28;70.68
71175;DHT22;58876;51.994;4.472;2023-08-21T00:32:40;20.25;70.02
71175;DHT22;58876;51.994;4.472;2023-08-21T00:35:06;20.31;71.32
71175;DHT22;58876;51.994;4.472;2023-08-21T00:37:32;20.27;70.78
71175;DHT22;58876;51.994;4.472;2023-08-21T00:39:57;20.24;70.32
71175;DHT22;58876;51.994;4.472;2023-08-21T00:42:23;20.32;71.73
71175;DHT22;58876;51.994;4.472;2023-08-21T00:44:48;20.29;71.72
71175;DHT22;58876;51.994;4.472;2023-08-21T00:47:13;20.34;72.24
71175;DHT22;58876;51.994;4.472;2023-08-21T00:49:39;20.29;72.23
71175;DHT22;58876;51.994;4.472;2023-08-21T00:52:08;20.27;71.52
71175;DHT22;58876;51.994;4.472;2023-08-21T00:54:34;20.25;71.73
71175;DHT22;58876;51.994;4.472;2023-08-21T00:57:01;20.17;71.42
71175;DHT22;58876;51.994;4.472;2023-08-21T00:59:26;20.13;71.11
71175;DHT22;58876;51.994;4.472;2023-08-21T01:01:52;20.07;71.83
71175;DHT22;58876;51.994;4.472;2023-08-21T01:04:18;20.08;72.55
71175;DHT22;58876;51.994;4.472;2023-08-21T01:06:43;20.10;72.00
71175;DHT22;58876;51.994;4.472;2023-08-21T01:14:44;20.07;72.20
71175;DHT22;58876;51.994;4.472;2023-08-21T01:17:12;20.10;72.24
71175;DHT22;58876;51.994;4.472;2023-08-21T01:19:46;20.13;72.19
71175;DHT22;58876;51.994;4.472;2023-08-21T01:22:12;20.13;71.69
71175;DHT22;58876;51.994;4.472;2023-08-21T01:24:37;20.08;70.99
71175;DHT22;58876;51.994;4.472;2023-08-21T01:27:03;20.04;70.65
71175;DHT22;58876;51.994;4.472;2023-08-21T01:29:29;20.06;70.79
71175;DHT22;58876;51.994;4.472;2023-08-21T01:32:18;20.00;69.81
71175;DHT22;58876;51.994;4.472;2023-08-21T01:34:47;20.03;70.84
71175;DHT22;58876;51.994;4.472;2023-08-21T01:37:15;20.01;71.29
71175;DHT22;58876;51.994;4.472;2023-08-21T01:39:41;20.07;71.80
71175;DHT22;58876;51.994;4.472;2023-08-21T01:42:07;20.01;70.85
71175;DHT22;58876;51.994;4.472;2023-08-21T01:44:32;19.98;71.95
71175;DHT22;58876;51.994;4.472;2023-08-21T01:46:58;19.98;72.13
71175;DHT22;58876;51.994;4.472;2023-08-21T01:49:23;19.97;72.43
71175;DHT22;58876;51.994;4.472;2023-08-21T01:51:49;19.94;72.36
71175;DHT22;58876;51.994;4.472;2023-08-21T01:54:14;19.93;72.34
71175;DHT22;58876;51.994;4.472;2023-08-21T01:56:40;19.94;73.35
71175;DHT22;58876;51.994;4.472;2023-08-21T01:59:05;19.96;73.10
71175;DHT22;58876;51.994;4.472;2023-08-21T02:01:32;19.88;72.95
71175;DHT22;58876;51.994;4.472;2023-08-21T02:03:58;19.84;73.01
71175;DHT22;58876;51.994;4.472;2023-08-21T02:06:23;19.84;73.15
71175;DHT22;58876;51.994;4.472;2023-08-21T02:08:49;19.79;72.81
71175;DHT22;58876;51.994;4.472;2023-08-21T02:11:15;19.76;73.32
71175;DHT22;58876;51.994;4.472;2023-08-21T02:13:40;19.80;73.60
71175;DHT22;58876;51.994;4.472;2023-08-21T02:16:06;19.77;74.05
71175;DHT22;58876;51.994;4.472;2023-08-21T02:18:31;19.66;73.82
71175;DHT22;58876;51.994;4.472;2023-08-21T02:20:57;19.71;75.05
71175;DHT22;58876;51.994;4.472;2023-08-21T02:23:22;19.77;75.56
71175;DHT22;58876;51.994;4.472;2023-08-21T02:25:49;19.70;75.01
71175;DHT22;58876;51.994;4.472;2023-08-21T02:28:15;19.66;74.48
71175;DHT22;58876;51.994;4.472;2023-08-21T02:30:41;19.59;74.16
71175;DHT22;58876;51.994;4.472;2023-08-21T02:33:07;19.50;74.15
71175;DHT22;58876;51.994;4.472;2023-08-21T02:35:33;19.46;72.75
71175;DHT22;58876;51.994;4.472;2023-08-21T02:37:58;19.35;72.88
71175;DHT22;58876;51.994;4.472;2023-08-21T02:40:24;19.36;74.03
71175;DHT22;58876;51.994;4.472;2023-08-21T02:42:49;19.36;73.71
71175;DHT22;58876;51.994;4.472;2023-08-21T02:45:15;19.35;73.33
71175;DHT22;58876;51.994;4.472;2023-08-21T02:47:41;19.28;73.33
71175;DHT22;58876;51.994;4.472;2023-08-21T02:50:09;19.22;73.01
71175;DHT22;58876;51.994;4.472;2023-08-21T02:52:35;19.19;73.80
71175;DHT22;58876;51.994;4.472;2023-08-21T02:55:01;19.28;73.75
71175;DHT22;58876;51.994;4.472;2023-08-21T02:57:28;19.23;73.73
71175;DHT22;58876;51.994;4.472;2023-08-21T02:59:54;19.20;73.78
71175;DHT22;58876;51.994;4.472;2023-08-21T03:02:20;19.16;73.77
71175;DHT22;58876;51.994;4.472;2023-08-21T03:04:46;19.14;74.46
71175;DHT22;58876;51.994;4.472;2023-08-21T03:07:12;19.18;75.56
71175;DHT22;58876;51.994;4.472;2023-08-21T03:09:38;19.16;75.20
71175;DHT22;58876;51.994;4.472;2023-08-21T03:12:04;19.14;73.99
71175;DHT22;58876;51.994;4.472;2023-08-21T03:14:30;19.08;74.31
71175;DHT22;58876;51.994;4.472;2023-08-21T03:16:55;19.07;75.16
71175;DHT22;58876;51.994;4.472;2023-08-21T03:19:21;19.07;74.89
71175;DHT22;58876;51.994;4.472;2023-08-21T03:21:46;18.94;74.06
71175;DHT22;58876;51.994;4.472;2023-08-21T03:24:12;18.88;74.50
71175;DHT22;58876;51.994;4.472;2023-08-21T03:26:37;18.90;74.48
71175;DHT22;58876;51.994;4.472;2023-08-21T03:29:03;18.87;74.63
71175;DHT22;58876;51.994;4.472;2023-08-21T03:31:29;18.88;74.72
71175;DHT22;58876;51.994;4.472;2023-08-21T03:33:55;18.88;75.27
71175;DHT22;58876;51.994;4.472;2023-08-21T03:36:20;18.85;74.88
71175;DHT22;58876;51.994;4.472;2023-08-21T03:38:46;18.81;74.71
71175;DHT22;58876;51.994;4.472;2023-08-21T03:41:11;18.81;74.84
71175;DHT22;58876;51.994;4.472;2023-08-21T03:43:37;18.75;74.88
71175;DHT22;58876;51.994;4.472;2023-08-21T03:46:03;18.75;75.31
71175;DHT22;58876;51.994;4.472;2023-08-21T03:48:29;18.75;75.88
71175;DHT22;58876;51.994;4.472;2023-08-21T03:50:54;18.77;76.76
71175;DHT22;58876;51.994;4.472;2023-08-21T03:53:20;18.80;77.42
71175;DHT22;58876;51.994;4.472;2023-08-21T03:55:45;18.78;76.47
71175;DHT22;58876;51.994;4.472;2023-08-21T03:58:11;18.77;76.57
71175;DHT22;58876;51.994;4.472;2023-08-21T04:00:37;18.70;75.96
71175;DHT22;58876;51.994;4.472;2023-08-21T04:03:02;18.71;77.18
71175;DHT22;58876;51.994;4.472;2023-08-21T04:05:28;18.72;76.86
71175;DHT22;58876;51.994;4.472;2023-08-21T04:07:53;18.70;75.91
71175;DHT22;58876;51.994;4.472;2023-08-21T04:10:19;18.63;75.58
71175;DHT22;58876;51.994;4.472;2023-08-21T04:12:44;18.59;75.50
71175;DHT22;58876;51.994;4.472;2023-08-21T04:15:10;18.56;74.69
71175;DHT22;58876;51.994;4.472;2023-08-21T04:17:35;18.53;75.14
71175;DHT22;58876;51.994;4.472;2023-08-21T04:20:01;18.53;75.25
71175;DHT22;58876;51.994;4.472;2023-08-21T04:22:27;18.50;75.42
71175;DHT22;58876;51.994;4.472;2023-08-21T04:24:52;18.47;75.30
71175;DHT22;58876;51.994;4.472;2023-08-21T04:27:18;18.44;75.60
71175;DHT22;58876;51.994;4.472;2023-08-21T04:29:43;18.43;75.77
71175;DHT22;58876;51.994;4.472;2023-08-21T04:32:09;18.47;77.20
71175;DHT22;58876;51.994;4.472;2023-08-21T04:34:34;18.53;77.26
71175;DHT22;58876;51.994;4.472;2023-08-21T04:37:00;18.51;76.83
71175;DHT22;58876;51.994;4.472;2023-08-21T04:39:26;18.47;76.38
71175;DHT22;58876;51.994;4.472;2023-08-21T04:41:51;18.46;76.60
71175;DHT22;58876;51.994;4.472;2023-08-21T04:44:17;18.50;77.05
71175;DHT22;58876;51.994;4.472;2023-08-21T04:46:43;18.50;76.66
71175;DHT22;58876;51.994;4.472;2023-08-21T04:49:08;18.53;77.03
71175;DHT22;58876;51.994;4.472;2023-08-21T04:51:34;18.54;77.30
71175;DHT22;58876;51.994;4.472;2023-08-21T04:54:00;18.57;77.03
71175;DHT22;58876;51.994;4.472;2023-08-21T04:56:26;18.56;76.87
71175;DHT22;58876;51.994;4.472;2023-08-21T04:58:52;18.60;77.50
71175;DHT22;58876;51.994;4.472;2023-08-21T05:01:17;18.65;77.50
71175;DHT22;58876;51.994;4.472;2023-08-21T05:03:43;18.75;77.77
71175;DHT22;58876;51.994;4.472;2023-08-21T05:06:09;18.81;77.70
71175;DHT22;58876;51.994;4.472;2023-08-21T05:08:34;18.88;77.52
71175;DHT22;58876;51.994;4.472;2023-08-21T05:11:01;18.88;77.62
71175;DHT22;58876;51.994;4.472;2023-08-21T05:13:27;18.94;77.98
71175;DHT22;58876;51.994;4.472;2023-08-21T05:15:54;19.05;77.70
71175;DHT22;58876;51.994;4.472;2023-08-21T05:18:20;19.08;77.46
71175;DHT22;58876;51.994;4.472;2023-08-21T05:20:47;19.12;77.17
71175;DHT22;58876;51.994;4.472;2023-08-21T05:23:12;19.15;77.26
71175;DHT22;58876;51.994;4.472;2023-08-21T05:25:38;19.12;76.86
71175;DHT22;58876;51.994;4.472;2023-08-21T05:28:04;19.11;77.08
71175;DHT22;58876;51.994;4.472;2023-08-21T05:30:30;19.09;77.40
71175;DHT22;58876;51.994;4.472;2023-08-21T05:32:55;19.14;77.54
71175;DHT22;58876;51.994;4.472;2023-08-21T05:35:21;19.19;77.40
71175;DHT22;58876;51.994;4.472;2023-08-21T05:37:46;19.25;76.68
71175;DHT22;58876;51.994;4.472;2023-08-21T05:40:12;19.19;76.66
71175;DHT22;58876;51.994;4.472;2023-08-21T05:42:38;19.20;76.82
71175;DHT22;58876;51.994;4.472;2023-08-21T05:45:04;19.28;77.04
71175;DHT22;58876;51.994;4.472;2023-08-21T05:47:30;19.30;77.32
71175;DHT22;58876;51.994;4.472;2023-08-21T05:49:56;19.39;77.48
71175;DHT22;58876;51.994;4.472;2023-08-21T05:52:21;19.42;77.51
71175;DHT22;58876;51.994;4.472;2023-08-21T05:54:50;19.53;77.53
71175;DHT22;58876;51.994;4.472;2023-08-21T05:57:15;19.63;77.71
71175;DHT22;58876;51.994;4.472;2023-08-21T05:59:45;19.67;77.70
71175;DHT22;58876;51.994;4.472;2023-08-21T06:02:11;19.77;77.49
71175;DHT22;58876;51.994;4.472;2023-08-21T06:04:41;19.71;78.09
71175;DHT22;58876;51.994;4.472;2023-08-21T06:07:07;19.73;78.66
71175;DHT22;58876;51.994;4.472;2023-08-21T06:09:33;19.83;78.63
71175;DHT22;58876;51.994;4.472;2023-08-21T06:12:00;19.90;78.65
71175;DHT22;58876;51.994;4.472;2023-08-21T06:14:28;19.93;79.22
71175;DHT22;58876;51.994;4.472;2023-08-21T06:17:04;20.04;79.49
71175;DHT22;58876;51.994;4.472;2023-08-21T06:19:31;20.14;79.31
71175;DHT22;58876;51.994;4.472;2023-08-21T06:21:57;20.18;79.44
71175;DHT22;58876;51.994;4.472;2023-08-21T06:24:23;20.18;79.86
71175;DHT22;58876;51.994;4.472;2023-08-21T06:26:48;20.04;80.38
71175;DHT22;58876;51.994;4.472;2023-08-21T06:29:14;20.14;80.55
71175;DHT22;58876;51.994;4.472;2023-08-21T06:31:40;20.20;80.28
71175;DHT22;58876;51.994;4.472;2023-08-21T06:34:05;20.13;80.50
71175;DHT22;58876;51.994;4.472;2023-08-21T06:36:31;20.24;80.78
71175;DHT22;58876;51.994;4.472;2023-08-21T06:38:56;20.45;80.15
71175;DHT22;58876;51.994;4.472;2023-08-21T06:41:22;20.52;79.84
71175;DHT22;58876;51.994;4.472;2023-08-21T06:43:47;20.68;80.00
71175;DHT22;58876;51.994;4.472;2023-08-21T06:46:13;20.85;79.41
71175;DHT22;58876;51.994;4.472;2023-08-21T06:48:40;20.85;79.66
71175;DHT22;58876;51.994;4.472;2023-08-21T06:51:08;20.83;79.81
71175;DHT22;58876;51.994;4.472;2023-08-21T06:53:34;20.79;79.84
71175;DHT22;58876;51.994;4.472;2023-08-21T06:56:00;20.86;79.83
71175;DHT22;58876;51.994;4.472;2023-08-21T06:58:25;20.76;80.60
71175;DHT22;58876;51.994;4.472;2023-08-21T07:00:50;20.92;79.93
71175;DHT22;58876;51.994;4.472;2023-08-21T07:03:16;21.02;80.11
71175;DHT22;58876;51.994;4.472;2023-08-21T07:05:46;21.17;79.53
71175;DHT22;58876;51.994;4.472;2023-08-21T07:08:12;21.36;79.24
71175;DHT22;58876;51.994;4.472;2023-08-21T07:10:38;21.44;78.11
71175;DHT22;58876;51.994;4.472;2023-08-21T07:13:03;21.48;78.46
71175;DHT22;58876;51.994;4.472;2023-08-21T07:15:29;21.75;77.20
71175;DHT22;58876;51.994;4.472;2023-08-21T07:17:55;21.75;77.60
71175;DHT22;58876;51.994;4.472;2023-08-21T07:20:21;21.86;76.63
71175;DHT22;58876;51.994;4.472;2023-08-21T07:22:47;21.81;77.48
71175;DHT22;58876;51.994;4.472;2023-08-21T07:25:12;21.94;76.00
71175;DHT22;58876;51.994;4.472;2023-08-21T07:27:38;21.78;77.25
71175;DHT22;58876;51.994;4.472;2023-08-21T07:30:06;22.10;77.09
71175;DHT22;58876;51.994;4.472;2023-08-21T07:32:31;22.08;76.46
71175;DHT22;58876;51.994;4.472;2023-08-21T07:34:57;22.33;75.71
71175;DHT22;58876;51.994;4.472;2023-08-21T07:37:22;22.30;75.85
71175;DHT22;58876;51.994;4.472;2023-08-21T07:39:48;22.67;75.23
71175;DHT22;58876;51.994;4.472;2023-08-21T07:42:13;22.88;73.95
71175;DHT22;58876;51.994;4.472;2023-08-21T07:44:39;23.02;73.22
71175;DHT22;58876;51.994;4.472;2023-08-21T07:47:05;22.91;73.38
71175;DHT22;58876;51.994;4.472;2023-08-21T07:49:32;22.88;73.59
71175;DHT22;58876;51.994;4.472;2023-08-21T07:51:57;23.19;72.70
71175;DHT22;58876;51.994;4.472;2023-08-21T07:54:23;23.35;72.85
71175;DHT22;58876;51.994;4.472;2023-08-21T07:56:49;23.55;71.97
71175;DHT22;58876;51.994;4.472;2023-08-21T07:59:15;24.22;70.00
71175;DHT22;58876;51.994;4.472;2023-08-21T08:01:40;24.68;68.35
71175;DHT22;58876;51.994;4.472;2023-08-21T08:04:06;25.46;65.52
71175;DHT22;58876;51.994;4.472;2023-08-21T08:06:31;25.75;63.97
71175;DHT22;58876;51.994;4.472;2023-08-21T08:08:57;25.91;63.62
71175;DHT22;58876;51.994;4.472;2023-08-21T08:11:23;25.70;64.11
71175;DHT22;58876;51.994;4.472;2023-08-21T08:13:48;25.68;64.86
71175;DHT22;58876;51.994;4.472;2023-08-21T08:16:14;25.61;63.79
71175;DHT22;58876;51.994;4.472;2023-08-21T08:18:39;26.67;62.99
71175;DHT22;58876;51.994;4.472;2023-08-21T08:21:05;27.49;59.03
71175;DHT22;58876;51.994;4.472;2023-08-21T08:23:30;27.86;57.82
71175;DHT22;58876;51.994;4.472;2023-08-21T08:25:56;28.07;56.85
71175;DHT22;58876;51.994;4.472;2023-08-21T08:28:22;28.06;57.03
71175;DHT22;58876;51.994;4.472;2023-08-21T08:30:47;27.78;57.36
71175;DHT22;58876;51.994;4.472;2023-08-21T08:33:13;27.54;57.95
71175;DHT22;58876;51.994;4.472;2023-08-21T08:35:38;27.86;56.75
71175;DHT22;58876;51.994;4.472;2023-08-21T08:38:05;27.72;55.78
71175;DHT22;58876;51.994;4.472;2023-08-21T08:40:31;27.75;57.79
71175;DHT22;58876;51.994;4.472;2023-08-21T08:42:57;28.16;56.05
71175;DHT22;58876;51.994;4.472;2023-08-21T08:45:29;28.43;54.56
71175;DHT22;58876;51.994;4.472;2023-08-21T08:47:59;28.41;54.53
71175;DHT22;58876;51.994;4.472;2023-08-21T08:50:29;28.43;54.71
71175;DHT22;58876;51.994;4.472;2023-08-21T08:52:55;28.69;53.89
71175;DHT22;58876;51.994;4.472;2023-08-21T08:55:22;28.96;54.39
71175;DHT22;58876;51.994;4.472;2023-08-21T08:57:53;28.75;53.50
71175;DHT22;58876;51.994;4.472;2023-08-21T09:00:22;28.12;54.28
71175;DHT22;58876;51.994;4.472;2023-08-21T09:02:48;27.72;55.92
71175;DHT22;58876;51.994;4.472;2023-08-21T09:05:13;27.76;56.09
71175;DHT22;58876;51.994;4.472;2023-08-21T09:07:39;28.41;54.34
71175;DHT22;58876;51.994;4.472;2023-08-21T09:10:13;28.40;54.76
71175;DHT22;58876;51.994;4.472;2023-08-21T09:12:39;27.18;56.68
71175;DHT22;58876;51.994;4.472;2023-08-21T09:15:08;27.32;57.11
71175;DHT22;58876;51.994;4.472;2023-08-21T09:17:34;27.94;55.66
71175;DHT22;58876;51.994;4.472;2023-08-21T09:20:07;28.12;54.63
71175;DHT22;58876;51.994;4.472;2023-08-21T09:22:35;28.51;54.53
71175;DHT22;58876;51.994;4.472;2023-08-21T09:25:05;28.81;54.11
71175;DHT22;58876;51.994;4.472;2023-08-21T09:27:39;28.83;52.91
71175;DHT22;58876;51.994;4.472;2023-08-21T09:30:05;28.24;53.35
71175;DHT22;58876;51.994;4.472;2023-08-21T09:32:55;28.20;53.22
71175;DHT22;58876;51.994;4.472;2023-08-21T09:35:22;28.34;53.25
71175;DHT22;58876;51.994;4.472;2023-08-21T09:37:48;28.25;53.27
71175;DHT22;58876;51.994;4.472;2023-08-21T09:40:15;28.12;53.03
71175;DHT22;58876;51.994;4.472;2023-08-21T09:42:40;27.51;55.95
71175;DHT22;58876;51.994;4.472;2023-08-21T09:45:06;27.35;55.36
71175;DHT22;58876;51.994;4.472;2023-08-21T09:47:33;27.34;55.57
71175;DHT22;58876;51.994;4.472;2023-08-21T09:49:59;26.95;53.52
71175;DHT22;58876;51.994;4.472;2023-08-21T09:52:26;26.74;53.92
71175;DHT22;58876;51.994;4.472;2023-08-21T09:54:57;26.80;54.21
71175;DHT22;58876;51.994;4.472;2023-08-21T09:57:23;26.83;55.10
71175;DHT22;58876;51.994;4.472;2023-08-21T09:59:53;26.63;55.08
71175;DHT22;58876;51.994;4.472;2023-08-21T10:02:22;26.80;56.99
71175;DHT22;58876;51.994;4.472;2023-08-21T10:04:49;26.94;53.01
71175;DHT22;58876;51.994;4.472;2023-08-21T10:07:21;26.49;54.91
71175;DHT22;58876;51.994;4.472;2023-08-21T10:09:50;26.52;54.88
71175;DHT22;58876;51.994;4.472;2023-08-21T10:12:18;26.29;53.62
71175;DHT22;58876;51.994;4.472;2023-08-21T10:14:44;25.71;56.87
71175;DHT22;58876;51.994;4.472;2023-08-21T10:17:10;25.75;56.29
71175;DHT22;58876;51.994;4.472;2023-08-21T10:19:36;25.53;57.16
71175;DHT22;58876;51.994;4.472;2023-08-21T10:22:02;25.31;57.47
71175;DHT22;58876;51.994;4.472;2023-08-21T10:24:37;25.60;56.96
71175;DHT22;58876;51.994;4.472;2023-08-21T10:27:05;25.60;56.14
71175;DHT22;58876;51.994;4.472;2023-08-21T10:29:31;25.75;57.10
71175;DHT22;58876;51.994;4.472;2023-08-21T10:32:01;26.01;57.07
71175;DHT22;58876;51.994;4.472;2023-08-21T10:34:36;26.31;55.32
71175;DHT22;58876;51.994;4.472;2023-08-21T10:37:10;26.49;53.67
71175;DHT22;58876;51.994;4.472;2023-08-21T10:39:39;26.56;54.78
71175;DHT22;58876;51.994;4.472;2023-08-21T10:42:10;26.79;52.56
71175;DHT22;58876;51.994;4.472;2023-08-21T10:47:20;27.52;51.92
71175;DHT22;58876;51.994;4.472;2023-08-21T10:49:57;27.54;50.83
71175;DHT22;58876;51.994;4.472;2023-08-21T10:54:56;26.70;51.27
71175;DHT22;58876;51.994;4.472;2023-08-21T10:57:27;26.52;51.34
71175;DHT22;58876;51.994;4.472;2023-08-21T10:59:56;26.67;54.26
71175;DHT22;58876;51.994;4.472;2023-08-21T11:02:23;26.94;51.34
71175;DHT22;58876;51.994;4.472;2023-08-21T11:04:51;26.70;49.50
71175;DHT22;58876;51.994;4.472;2023-08-21T11:07:17;26.79;50.08
71175;DHT22;58876;51.994;4.472;2023-08-21T11:09:43;26.76;49.78
71175;DHT22;58876;51.994;4.472;2023-08-21T11:12:14;26.52;51.36
71175;DHT22;58876;51.994;4.472;2023-08-21T11:14:40;26.66;53.93
71175;DHT22;58876;51.994;4.472;2023-08-21T11:17:07;27.05;50.57
71175;DHT22;58876;51.994;4.472;2023-08-21T11:19:34;27.03;51.26
71175;DHT22;58876;51.994;4.472;2023-08-21T11:22:01;27.00;51.81
71175;DHT22;58876;51.994;4.472;2023-08-21T11:24:31;27.00;50.64
71175;DHT22;58876;51.994;4.472;2023-08-21T11:27:08;27.12;50.83
71175;DHT22;58876;51.994;4.472;2023-08-21T11:29:39;27.32;53.68
71175;DHT22;58876;51.994;4.472;2023-08-21T11:32:23;27.67;52.40
71175;DHT22;58876;51.994;4.472;2023-08-21T11:34:51;27.83;51.43
71175;DHT22;58876;51.994;4.472;2023-08-21T11:37:22;27.67;50.73
71175;DHT22;58876;51.994;4.472;2023-08-21T11:42:15;27.51;49.32
71175;DHT22;58876;51.994;4.472;2023-08-21T11:47:11;27.04;49.83
71175;DHT22;58876;51.994;4.472;2023-08-21T11:49:39;27.16;52.96
71175;DHT22;58876;51.994;4.472;2023-08-21T11:52:06;27.34;51.23
71175;DHT22;58876;51.994;4.472;2023-08-21T11:54:34;27.35;50.90
71175;DHT22;58876;51.994;4.472;2023-08-21T11:57:04;27.63;53.37
71175;DHT22;58876;51.994;4.472;2023-08-21T11:59:29;27.73;49.59
71175;DHT22;58876;51.994;4.472;2023-08-21T12:01:55;27.76;48.48
71175;DHT22;58876;51.994;4.472;2023-08-21T12:04:21;27.52;49.97
71175;DHT22;58876;51.994;4.472;2023-08-21T12:06:46;27.44;50.07
71175;DHT22;58876;51.994;4.472;2023-08-21T12:09:12;27.31;52.09
71175;DHT22;58876;51.994;4.472;2023-08-21T12:11:37;27.63;52.28
71175;DHT22;58876;51.994;4.472;2023-08-21T12:14:05;27.82;50.98
71175;DHT22;58876;51.994;4.472;2023-08-21T12:16:31;28.23;51.20
71175;DHT22;58876;51.994;4.472;2023-08-21T12:18:56;28.43;49.42
71175;DHT22;58876;51.994;4.472;2023-08-21T12:21:26;28.14;50.75
71175;DHT22;58876;51.994;4.472;2023-08-21T12:23:51;28.50;49.75
71175;DHT22;58876;51.994;4.472;2023-08-21T12:26:16;27.92;48.71
71175;DHT22;58876;51.994;4.472;2023-08-21T12:28:48;27.89;50.76
71175;DHT22;58876;51.994;4.472;2023-08-21T12:31:14;28.13;48.62
71175;DHT22;58876;51.994;4.472;2023-08-21T12:33:40;27.70;50.99
71175;DHT22;58876;51.994;4.472;2023-08-21T12:36:05;28.03;49.53
71175;DHT22;58876;51.994;4.472;2023-08-21T12:38:31;27.69;51.72
71175;DHT22;58876;51.994;4.472;2023-08-21T12:40:58;27.52;49.58
71175;DHT22;58876;51.994;4.472;2023-08-21T12:43:23;27.37;50.68
71175;DHT22;58876;51.994;4.472;2023-08-21T12:45:49;27.58;50.48
71175;DHT22;58876;51.994;4.472;2023-08-21T12:48:14;27.97;50.86
71175;DHT22;58876;51.994;4.472;2023-08-21T12:50:40;28.12;49.81
71175;DHT22;58876;51.994;4.472;2023-08-21T12:53:05;28.45;50.25
71175;DHT22;58876;51.994;4.472;2023-08-21T12:55:31;28.24;49.20
71175;DHT22;58876;51.994;4.472;2023-08-21T12:57:56;27.69;46.75
71175;DHT22;58876;51.994;4.472;2023-08-21T13:00:22;27.72;47.69
71175;DHT22;58876;51.994;4.472;2023-08-21T13:02:47;27.82;48.69
71175;DHT22;58876;51.994;4.472;2023-08-21T13:05:14;27.76;49.87
71175;DHT22;58876;51.994;4.472;2023-08-21T13:07:40;27.89;51.26
71175;DHT22;58876;51.994;4.472;2023-08-21T13:10:06;27.89;50.52
71175;DHT22;58876;51.994;4.472;2023-08-21T13:12:32;28.00;49.93
71175;DHT22;58876;51.994;4.472;2023-08-21T13:14:57;28.24;50.70
71175;DHT22;58876;51.994;4.472;2023-08-21T13:17:24;28.24;49.30
71175;DHT22;58876;51.994;4.472;2023-08-21T13:19:49;27.04;52.14
71175;DHT22;58876;51.994;4.472;2023-08-21T13:22:16;27.08;52.77
71175;DHT22;58876;51.994;4.472;2023-08-21T13:24:42;27.14;51.69
71175;DHT22;58876;51.994;4.472;2023-08-21T13:27:07;26.95;53.36
71175;DHT22;58876;51.994;4.472;2023-08-21T13:29:33;27.27;53.58
71175;DHT22;58876;51.994;4.472;2023-08-21T13:31:59;27.23;51.66
71175;DHT22;58876;51.994;4.472;2023-08-21T13:34:24;27.01;53.60
71175;DHT22;58876;51.994;4.472;2023-08-21T13:36:50;27.31;53.17
71175;DHT22;58876;51.994;4.472;2023-08-21T13:39:16;27.85;50.11
71175;DHT22;58876;51.994;4.472;2023-08-21T13:41:42;27.62;49.60
71175;DHT22;58876;51.994;4.472;2023-08-21T13:44:07;26.97;51.90
71175;DHT22;58876;51.994;4.472;2023-08-21T13:46:36;27.30;52.95
71175;DHT22;58876;51.994;4.472;2023-08-21T13:49:01;27.07;51.27
71175;DHT22;58876;51.994;4.472;2023-08-21T13:51:27;27.01;53.85
71175;DHT22;58876;51.994;4.472;2023-08-21T13:53:52;27.10;52.62
71175;DHT22;58876;51.994;4.472;2023-08-21T13:56:18;27.49;51.43
71175;DHT22;58876;51.994;4.472;2023-08-21T13:58:43;27.52;51.18
71175;DHT22;58876;51.994;4.472;2023-08-21T14:01:09;27.54;52.70
71175;DHT22;58876;51.994;4.472;2023-08-21T14:03:34;27.79;51.84
71175;DHT22;58876;51.994;4.472;2023-08-21T14:06:00;27.73;49.81
71175;DHT22;58876;51.994;4.472;2023-08-21T14:08:26;27.35;50.66
71175;DHT22;58876;51.994;4.472;2023-08-21T14:10:51;27.28;51.13
71175;DHT22;58876;51.994;4.472;2023-08-21T14:13:17;27.16;51.70
71175;DHT22;58876;51.994;4.472;2023-08-21T14:15:42;27.27;50.90
71175;DHT22;58876;51.994;4.472;2023-08-21T14:18:08;27.07;52.07
71175;DHT22;58876;51.994;4.472;2023-08-21T14:20:33;27.08;52.44
71175;DHT22;58876;51.994;4.472;2023-08-21T14:22:59;27.18;51.55
71175;DHT22;58876;51.994;4.472;2023-08-21T14:25:25;27.56;50.51
71175;DHT22;58876;51.994;4.472;2023-08-21T14:27:50;27.66;50.68
71175;DHT22;58876;51.994;4.472;2023-08-21T14:30:16;27.65;50.28
71175;DHT22;58876;51.994;4.472;2023-08-21T14:32:41;27.35;51.44
71175;DHT22;58876;51.994;4.472;2023-08-21T14:35:08;27.03;52.07
71175;DHT22;58876;51.994;4.472;2023-08-21T14:37:35;26.91;52.42
71175;DHT22;58876;51.994;4.472;2023-08-21T14:40:01;27.25;53.06
71175;DHT22;58876;51.994;4.472;2023-08-21T14:42:31;27.34;50.89
71175;DHT22;58876;51.994;4.472;2023-08-21T14:44:57;27.39;52.02
71175;DHT22;58876;51.994;4.472;2023-08-21T14:47:22;27.39;51.16
71175;DHT22;58876;51.994;4.472;2023-08-21T14:49:48;27.54;51.01
71175;DHT22;58876;51.994;4.472;2023-08-21T14:52:13;27.81;51.39
71175;DHT22;58876;51.994;4.472;2023-08-21T14:54:39;27.63;51.41
71175;DHT22;58876;51.994;4.472;2023-08-21T14:57:04;27.61;50.59
71175;DHT22;58876;51.994;4.472;2023-08-21T14:59:30;27.88;51.12
71175;DHT22;58876;51.994;4.472;2023-08-21T15:01:55;28.27;50.14
71175;DHT22;58876;51.994;4.472;2023-08-21T15:04:20;28.52;51.02
71175;DHT22;58876;51.994;4.472;2023-08-21T15:06:46;28.72;50.27
71175;DHT22;58876;51.994;4.472;2023-08-21T15:09:12;28.37;49.61
71175;DHT22;58876;51.994;4.472;2023-08-21T15:11:38;28.50;48.86
71175;DHT22;58876;51.994;4.472;2023-08-21T15:14:09;27.92;50.56
71175;DHT22;58876;51.994;4.472;2023-08-21T15:16:35;27.55;50.52
71175;DHT22;58876;51.994;4.472;2023-08-21T15:19:01;27.63;51.02
71175;DHT22;58876;51.994;4.472;2023-08-21T15:21:26;27.81;49.65
71175;DHT22;58876;51.994;4.472;2023-08-21T15:23:52;27.81;50.79
71175;DHT22;58876;51.994;4.472;2023-08-21T15:26:17;27.39;51.18
71175;DHT22;58876;51.994;4.472;2023-08-21T15:28:43;27.31;51.58
71175;DHT22;58876;51.994;4.472;2023-08-21T15:31:08;27.52;50.81
71175;DHT22;58876;51.994;4.472;2023-08-21T15:33:34;27.62;51.37
71175;DHT22;58876;51.994;4.472;2023-08-21T15:36:03;27.99;50.78
71175;DHT22;58876;51.994;4.472;2023-08-21T15:38:29;28.20;49.31
71175;DHT22;58876;51.994;4.472;2023-08-21T15:40:55;28.37;49.37